Time;durP1;ratioP1;P1;durP2;ratioP2;P2;SDS_P1;SDS_P2;PMS_P1;PMS_P2;Temp;Humidity;BMP_temperature;BMP_pressure;BME280_temperature;BME280_humidity;BME280_pressure;Samples;Min_cycle;Max_cycle;Signal;HPM_P1;HPM_P2
2024/01/31 00:01:39;;;;;;;20.00;15.23;;;;;;;;;;5060611;28;20044;-57
2024/01/31 00:04:06;;;;;;;18.73;15.07;;;;;;;;;;5068378;28;20050;-57
2024/01/31 00:06:33;;;;;;;18.38;14.77;;;;;;;;;;5054789;28;20056;-57
2024/01/31 00:09:01;;;;;;;17.77;15.20;;;;;;;;;;5055734;28;20398;-57
2024/01/31 00:11:29;;;;;;;18.05;14.63;;;;;;;;;;5073823;28;20063;-58
2024/01/31 00:13:56;;;;;;;18.30;14.75;;;;;;;;;;5075721;28;20071;-57
2024/01/31 00:16:23;;;;;;;18.27;15.48;;;;;;;;;;5065816;28;20053;-57
2024/01/31 00:18:50;;;;;;;18.90;14.40;;;;;;;;;;5056633;28;20056;-57
2024/01/31 00:21:17;;;;;;;11.70;8.55;;;;;;;;;;5056413;28;20641;-57
2024/01/31 00:23:44;;;;;;;8.85;6.43;;;;;;;;;;5055327;28;20061;-57
2024/01/31 00:26:12;;;;;;;6.32;5.32;;;;;;;;;;5054742;28;20056;-57
2024/01/31 00:28:39;;;;;;;7.38;5.55;;;;;;;;;;5055506;28;20060;-57
2024/01/31 00:31:06;;;;;;;5.13;4.30;;;;;;;;;;5068139;28;20056;-57
2024/01/31 00:33:33;;;;;;;5.32;3.72;;;;;;;;;;5075452;28;20056;-57
2024/01/31 00:36:01;;;;;;;4.45;2.90;;;;;;;;;;5069270;28;20049;-57
2024/01/31 00:38:28;;;;;;;5.03;2.63;;;;;;;;;;5075460;28;20473;-57
2024/01/31 00:40:55;;;;;;;5.88;2.67;;;;;;;;;;5071050;28;20056;-57
2024/01/31 00:43:23;;;;;;;5.05;2.72;;;;;;;;;;5071257;28;20048;-57
2024/01/31 00:45:50;;;;;;;6.32;3.28;;;;;;;;;;5074729;28;20049;-57
2024/01/31 00:48:16;;;;;;;5.03;2.40;;;;;;;;;;5074118;28;20405;-57
2024/01/31 00:50:44;;;;;;;4.43;2.58;;;;;;;;;;5064768;28;20457;-57
2024/01/31 00:53:10;;;;;;;4.90;2.17;;;;;;;;;;5054914;28;20053;-57
2024/01/31 00:55:37;;;;;;;4.38;2.80;;;;;;;;;;5054372;28;20045;-57
2024/01/31 00:58:04;;;;;;;5.68;2.85;;;;;;;;;;5054928;28;20078;-57
2024/01/31 01:00:32;;;;;;;6.97;3.33;;;;;;;;;;5057361;28;20449;-57
2024/01/31 01:02:59;;;;;;;6.40;3.10;;;;;;;;;;5071929;28;20056;-57
2024/01/31 01:05:26;;;;;;;8.30;3.88;;;;;;;;;;5072419;28;20048;-57
2024/01/31 01:07:53;;;;;;;6.90;3.70;;;;;;;;;;5053625;28;20053;-57
2024/01/31 01:10:19;;;;;;;7.43;3.95;;;;;;;;;;5072225;28;20516;-57
2024/01/31 01:12:46;;;;;;;6.68;4.15;;;;;;;;;;5074048;28;20075;-57
2024/01/31 01:15:16;;;;;;;9.43;4.35;;;;;;;;;;5056076;28;20052;-57
2024/01/31 01:17:44;;;;;;;7.03;4.20;;;;;;;;;;5054450;28;20406;-57
2024/01/31 01:20:11;;;;;;;10.27;5.20;;;;;;;;;;5053655;28;20049;-57
2024/01/31 01:22:38;;;;;;;8.90;5.15;;;;;;;;;;5066636;28;20091;-57
2024/01/31 01:25:05;;;;;;;9.90;5.18;;;;;;;;;;5073359;28;20052;-57
2024/01/31 01:27:32;;;;;;;8.70;5.47;;;;;;;;;;5073675;28;20052;-57
2024/01/31 01:29:59;;;;;;;8.25;5.38;;;;;;;;;;5072907;28;20056;-57
2024/01/31 01:32:26;;;;;;;14.52;6.28;;;;;;;;;;5074116;28;20048;-57
2024/01/31 01:34:54;;;;;;;8.75;5.30;;;;;;;;;;5073438;28;20052;-57
2024/01/31 01:37:21;;;;;;;11.65;6.60;;;;;;;;;;5064633;28;20048;-57
2024/01/31 01:39:47;;;;;;;10.23;6.03;;;;;;;;;;5053306;28;20057;-57
2024/01/31 01:42:14;;;;;;;8.40;5.60;;;;;;;;;;5053771;28;20056;-57
2024/01/31 01:44:43;;;;;;;11.63;5.88;;;;;;;;;;5057476;28;20413;-57
2024/01/31 01:47:10;;;;;;;12.60;5.63;;;;;;;;;;5072472;28;20059;-57
2024/01/31 01:49:38;;;;;;;12.85;6.28;;;;;;;;;;5073563;28;20064;-57
2024/01/31 01:52:06;;;;;;;10.20;5.60;;;;;;;;;;5057477;28;20052;-57
2024/01/31 01:54:33;;;;;;;9.90;5.30;;;;;;;;;;5053799;28;20384;-58
2024/01/31 01:57:00;;;;;;;9.23;5.35;;;;;;;;;;5053859;28;20521;-58
2024/01/31 01:59:27;;;;;;;10.20;5.40;;;;;;;;;;5053301;28;20049;-58
2024/01/31 02:01:54;;;;;;;9.57;6.10;;;;;;;;;;5052450;28;20059;-57
2024/01/31 02:04:22;;;;;;;8.73;5.93;;;;;;;;;;5053722;28;20064;-57
2024/01/31 02:06:49;;;;;;;8.40;5.90;;;;;;;;;;5052275;28;20052;-58
2024/01/31 02:09:18;;;;;;;9.68;5.93;;;;;;;;;;5052802;28;20064;-58
2024/01/31 02:11:45;;;;;;;11.75;6.13;;;;;;;;;;5052166;28;20057;-58
2024/01/31 02:14:12;;;;;;;11.05;6.88;;;;;;;;;;5055882;28;20052;-58
2024/01/31 02:16:39;;;;;;;13.68;6.80;;;;;;;;;;5073439;28;20052;-57
2024/01/31 02:19:05;;;;;;;8.93;6.78;;;;;;;;;;5071663;28;20056;-57
2024/01/31 02:21:33;;;;;;;10.80;6.60;;;;;;;;;;5073514;28;20074;-58
2024/01/31 02:24:01;;;;;;;11.43;7.50;;;;;;;;;;5060725;28;20063;-58
2024/01/31 02:26:29;;;;;;;10.23;6.88;;;;;;;;;;5052763;28;20115;-58
2024/01/31 02:28:55;;;;;;;12.77;7.75;;;;;;;;;;5058898;28;20518;-58
2024/01/31 02:31:22;;;;;;;13.20;7.85;;;;;;;;;;5072821;28;20425;-58
2024/01/31 02:33:49;;;;;;;11.23;7.57;;;;;;;;;;5072281;28;20059;-57
2024/01/31 02:36:16;;;;;;;13.38;8.30;;;;;;;;;;5066440;28;20041;-57
2024/01/31 02:38:43;;;;;;;12.23;8.48;;;;;;;;;;5053357;28;20055;-57
2024/01/31 02:41:11;;;;;;;12.07;8.63;;;;;;;;;;5052902;28;20057;-58
2024/01/31 02:43:37;;;;;;;13.10;9.23;;;;;;;;;;5052215;28;20075;-58
2024/01/31 02:46:04;;;;;;;13.43;8.82;;;;;;;;;;5052634;28;20167;-58
2024/01/31 02:48:31;;;;;;;16.80;9.57;;;;;;;;;;5052927;28;20060;-58
2024/01/31 02:50:58;;;;;;;15.20;9.20;;;;;;;;;;5052127;28;20059;-57
2024/01/31 02:53:25;;;;;;;12.60;9.75;;;;;;;;;;5063143;28;20402;-59
2024/01/31 02:55:52;;;;;;;13.57;9.57;;;;;;;;;;5053516;28;20048;-57
2024/01/31 02:58:20;;;;;;;15.65;10.23;;;;;;;;;;5052360;28;20413;-58
2024/01/31 03:00:47;;;;;;;12.35;9.18;;;;;;;;;;5065691;28;20063;-58
2024/01/31 03:03:13;;;;;;;11.50;8.95;;;;;;;;;;5056957;28;20053;-58
2024/01/31 03:05:40;;;;;;;17.50;9.50;;;;;;;;;;5051400;28;20079;-59
2024/01/31 03:08:07;;;;;;;14.88;9.48;;;;;;;;;;5051896;28;20053;-57
2024/01/31 03:10:34;;;;;;;15.60;10.18;;;;;;;;;;5050293;28;20049;-58
2024/01/31 03:13:01;;;;;;;14.85;9.63;;;;;;;;;;5063797;28;20048;-57
2024/01/31 03:15:29;;;;;;;16.25;9.82;;;;;;;;;;5055165;28;20053;-58
2024/01/31 03:17:56;;;;;;;12.43;8.63;;;;;;;;;;5052532;28;20049;-58
2024/01/31 03:20:23;;;;;;;13.73;9.07;;;;;;;;;;5067682;28;20059;-58
2024/01/31 03:22:49;;;;;;;15.65;9.20;;;;;;;;;;5072851;28;20053;-58
2024/01/31 03:25:16;;;;;;;15.55;9.20;;;;;;;;;;5059740;28;20055;-57
2024/01/31 03:27:43;;;;;;;12.75;8.35;;;;;;;;;;5070453;28;20405;-57
2024/01/31 03:30:10;;;;;;;12.68;8.18;;;;;;;;;;5073849;28;20397;-56
2024/01/31 03:32:38;;;;;;;12.43;8.93;;;;;;;;;;5075562;28;20052;-57
2024/01/31 03:35:05;;;;;;;13.05;8.15;;;;;;;;;;5076532;28;20059;-57
2024/01/31 03:37:32;;;;;;;11.70;8.68;;;;;;;;;;5058042;28;20056;-58
2024/01/31 03:39:59;;;;;;;12.00;8.32;;;;;;;;;;5055518;28;20064;-57
2024/01/31 03:42:26;;;;;;;14.27;8.05;;;;;;;;;;5055786;28;20049;-58
2024/01/31 03:44:52;;;;;;;11.77;7.03;;;;;;;;;;5056441;28;20049;-58
2024/01/31 03:47:19;;;;;;;6.95;5.28;;;;;;;;;;5061444;28;20055;-58
2024/01/31 03:49:47;;;;;;;5.13;3.42;;;;;;;;;;5076583;28;20059;-57
2024/01/31 03:52:14;;;;;;;4.28;2.92;;;;;;;;;;5074787;28;20059;-58
2024/01/31 03:54:41;;;;;;;5.13;3.13;;;;;;;;;;5076246;28;20053;-58
2024/01/31 03:57:08;;;;;;;5.85;3.10;;;;;;;;;;5069363;28;20478;-58
2024/01/31 03:59:34;;;;;;;6.07;2.95;;;;;;;;;;5075954;28;20473;-57
2024/01/31 04:02:01;;;;;;;5.15;2.80;;;;;;;;;;5074163;28;20583;-58
2024/01/31 04:04:28;;;;;;;5.32;3.00;;;;;;;;;;5075966;28;20496;-57
2024/01/31 04:06:56;;;;;;;4.75;2.80;;;;;;;;;;5068132;28;20493;-58
2024/01/31 04:09:23;;;;;;;5.93;3.10;;;;;;;;;;5056181;28;20071;-58
2024/01/31 04:11:49;;;;;;;6.45;3.03;;;;;;;;;;5059979;28;20055;-58
2024/01/31 04:14:16;;;;;;;6.97;3.08;;;;;;;;;;5075445;28;20059;-57
2024/01/31 04:16:43;;;;;;;6.28;3.00;;;;;;;;;;5074485;28;20044;-59
2024/01/31 04:19:10;;;;;;;5.72;3.00;;;;;;;;;;5056014;28;20045;-58
2024/01/31 04:21:37;;;;;;;6.38;3.10;;;;;;;;;;5055641;28;20505;-57
2024/01/31 04:24:05;;;;;;;5.03;3.05;;;;;;;;;;5074562;28;20396;-58
2024/01/31 04:26:32;;;;;;;6.82;3.53;;;;;;;;;;5072957;28;21617;-58
2024/01/31 04:28:59;;;;;;;5.55;3.20;;;;;;;;;;5071519;28;20048;-58
2024/01/31 04:31:25;;;;;;;5.78;3.30;;;;;;;;;;5075112;28;20052;-58
2024/01/31 04:33:52;;;;;;;6.85;3.42;;;;;;;;;;5060959;28;20058;-58
2024/01/31 04:36:19;;;;;;;5.28;3.20;;;;;;;;;;5055178;28;20414;-57
2024/01/31 04:38:46;;;;;;;6.43;3.20;;;;;;;;;;5054791;28;20482;-57
2024/01/31 04:41:14;;;;;;;6.22;3.65;;;;;;;;;;5053961;28;20060;-57
2024/01/31 04:43:41;;;;;;;6.75;3.55;;;;;;;;;;5054931;28;20053;-57
2024/01/31 04:46:08;;;;;;;5.25;3.05;;;;;;;;;;5054938;28;20053;-58
2024/01/31 04:48:35;;;;;;;6.38;3.53;;;;;;;;;;5054181;28;20055;-57
2024/01/31 04:51:02;;;;;;;6.25;3.53;;;;;;;;;;5054686;28;20059;-58
2024/01/31 04:53:29;;;;;;;7.75;3.60;;;;;;;;;;5060738;28;20056;-57
2024/01/31 04:55:56;;;;;;;6.43;3.55;;;;;;;;;;5075203;28;20059;-57
2024/01/31 04:58:24;;;;;;;6.60;4.68;;;;;;;;;;5068042;28;20049;-57
2024/01/31 05:00:51;;;;;;;10.50;4.88;;;;;;;;;;5075130;28;20049;-57
2024/01/31 05:03:18;;;;;;;7.75;4.80;;;;;;;;;;5072718;28;20056;-57
2024/01/31 05:05:45;;;;;;;8.23;4.68;;;;;;;;;;5054727;28;20060;-57
2024/01/31 05:08:12;;;;;;;6.15;4.05;;;;;;;;;;5054282;28;20053;-57
2024/01/31 05:10:42;;;;;;;7.80;4.82;;;;;;;;;;5054780;28;20053;-58
2024/01/31 05:13:08;;;;;;;7.13;4.32;;;;;;;;;;5055311;28;20056;-58
2024/01/31 05:15:36;;;;;;;7.13;5.30;;;;;;;;;;5055132;28;20060;-57
2024/01/31 05:18:03;;;;;;;7.78;4.45;;;;;;;;;;5059311;28;20052;-59
2024/01/31 05:20:30;;;;;;;9.55;4.40;;;;;;;;;;5074454;28;20504;-58
2024/01/31 05:22:57;;;;;;;6.43;4.82;;;;;;;;;;5074155;28;20378;-58
2024/01/31 05:25:24;;;;;;;7.05;4.60;;;;;;;;;;5073305;28;20390;-58
2024/01/31 05:27:50;;;;;;;6.97;4.38;;;;;;;;;;5074298;28;20482;-57
2024/01/31 05:30:17;;;;;;;8.50;4.45;;;;;;;;;;5064093;28;20052;-58
2024/01/31 05:32:46;;;;;;;6.50;4.28;;;;;;;;;;5074067;28;20056;-57
2024/01/31 05:35:13;;;;;;;6.97;4.07;;;;;;;;;;5073260;28;20048;-58
2024/01/31 05:37:40;;;;;;;6.32;4.60;;;;;;;;;;5072017;28;20052;-57
2024/01/31 05:40:08;;;;;;;7.45;4.53;;;;;;;;;;5061587;28;20495;-57
2024/01/31 05:42:34;;;;;;;6.40;4.00;;;;;;;;;;5052940;28;20057;-57
2024/01/31 05:45:01;;;;;;;7.35;4.20;;;;;;;;;;5053475;28;20049;-57
2024/01/31 05:47:28;;;;;;;9.88;4.75;;;;;;;;;;5073387;28;20056;-57
2024/01/31 05:49:56;;;;;;;6.93;4.38;;;;;;;;;;5073951;28;20402;-57
2024/01/31 05:52:23;;;;;;;7.07;3.90;;;;;;;;;;5072705;28;20052;-57
2024/01/31 05:54:49;;;;;;;7.47;3.75;;;;;;;;;;5073725;28;20063;-57
2024/01/31 05:57:16;;;;;;;7.13;4.05;;;;;;;;;;5054559;28;20045;-58
2024/01/31 05:59:43;;;;;;;6.50;4.10;;;;;;;;;;5053512;28;20056;-57
2024/01/31 06:02:10;;;;;;;8.57;4.57;;;;;;;;;;5073097;28;20398;-57
2024/01/31 06:04:37;;;;;;;6.40;4.20;;;;;;;;;;5071951;28;20478;-57
2024/01/31 06:07:05;;;;;;;6.20;3.72;;;;;;;;;;5056211;28;20486;-57
2024/01/31 06:09:32;;;;;;;6.00;3.65;;;;;;;;;;5069884;28;20052;-58
2024/01/31 06:11:58;;;;;;;5.40;3.90;;;;;;;;;;5053521;28;20057;-57
2024/01/31 06:14:25;;;;;;;6.95;3.80;;;;;;;;;;5052098;28;20049;-57
2024/01/31 06:16:52;;;;;;;4.20;2.92;;;;;;;;;;5055610;28;20056;-57
2024/01/31 06:19:19;;;;;;;7.70;3.75;;;;;;;;;;5053046;28;20053;-57
2024/01/31 06:21:46;;;;;;;5.57;3.00;;;;;;;;;;5065871;28;20048;-57
2024/01/31 06:24:14;;;;;;;5.07;3.20;;;;;;;;;;5073392;28;20061;-57
2024/01/31 06:26:40;;;;;;;3.75;2.60;;;;;;;;;;5071974;28;20056;-57
2024/01/31 06:29:06;;;;;;;5.40;3.25;;;;;;;;;;5070419;28;20048;-57
2024/01/31 06:31:40;;;;;;;4.88;3.22;;;;;;;;;;5063982;28;20064;-57
2024/01/31 06:34:07;;;;;;;7.15;3.97;;;;;;;;;;5053123;28;20060;-57
2024/01/31 06:36:33;;;;;;;5.15;3.17;;;;;;;;;;5061189;28;20402;-57
2024/01/31 06:39:00;;;;;;;6.50;3.03;;;;;;;;;;5072709;28;20393;-57
2024/01/31 06:41:28;;;;;;;4.43;3.15;;;;;;;;;;5053840;28;20422;-57
2024/01/31 06:43:55;;;;;;;5.72;4.10;;;;;;;;;;5050582;28;20060;-58
2024/01/31 06:46:22;;;;;;;4.28;3.40;;;;;;;;;;5065883;28;20058;-57
2024/01/31 06:48:49;;;;;;;5.47;3.08;;;;;;;;;;5054418;28;20048;-57
2024/01/31 06:51:16;;;;;;;8.57;3.13;;;;;;;;;;5066409;28;20057;-57
2024/01/31 06:53:44;;;;;;;5.47;2.75;;;;;;;;;;5059348;28;20049;-57
2024/01/31 06:56:16;;;;;;;6.35;2.90;;;;;;;;;;5058503;28;20059;-57
2024/01/31 06:58:45;;;;;;;6.50;3.10;;;;;;;;;;5052807;28;20052;-57
2024/01/31 07:01:14;;;;;;;7.25;3.00;;;;;;;;;;5060300;28;20063;-57
2024/01/31 07:03:41;;;;;;;6.28;3.85;;;;;;;;;;5072455;28;20492;-57
2024/01/31 07:06:08;;;;;;;6.35;3.45;;;;;;;;;;5071548;28;20056;-57
2024/01/31 07:08:34;;;;;;;6.03;3.63;;;;;;;;;;5072586;28;20461;-57
2024/01/31 07:11:01;;;;;;;7.18;3.90;;;;;;;;;;5059675;28;20409;-58
2024/01/31 07:13:28;;;;;;;6.97;4.35;;;;;;;;;;5061613;28;20048;-57
2024/01/31 07:15:56;;;;;;;6.60;4.20;;;;;;;;;;5057780;28;20049;-57
2024/01/31 07:18:23;;;;;;;7.30;4.55;;;;;;;;;;5052259;28;20049;-57
2024/01/31 07:20:50;;;;;;;8.00;4.97;;;;;;;;;;5052466;28;20056;-57
2024/01/31 07:23:17;;;;;;;7.57;4.30;;;;;;;;;;5054774;28;20056;-57
2024/01/31 07:25:43;;;;;;;8.85;5.22;;;;;;;;;;5072276;28;20049;-58
2024/01/31 07:28:10;;;;;;;7.47;5.28;;;;;;;;;;5070797;28;20053;-58
2024/01/31 07:30:38;;;;;;;9.88;5.43;;;;;;;;;;5065371;28;20048;-57
2024/01/31 07:33:06;;;;;;;12.35;7.38;;;;;;;;;;5057337;28;20390;-58
2024/01/31 07:35:33;;;;;;;12.25;7.75;;;;;;;;;;5053039;28;20057;-58
2024/01/31 07:37:59;;;;;;;11.82;8.25;;;;;;;;;;5071725;28;20044;-57
2024/01/31 07:40:26;;;;;;;12.57;7.72;;;;;;;;;;5058124;28;20052;-57
2024/01/31 07:42:53;;;;;;;13.30;7.85;;;;;;;;;;5053845;28;20060;-57
2024/01/31 07:45:20;;;;;;;13.57;8.75;;;;;;;;;;5057928;28;20063;-57
2024/01/31 07:47:47;;;;;;;13.25;9.23;;;;;;;;;;5066631;28;21146;-57
2024/01/31 07:50:15;;;;;;;14.88;9.40;;;;;;;;;;5065846;28;20063;-58
2024/01/31 07:52:42;;;;;;;16.48;10.40;;;;;;;;;;5062848;28;20501;-57
2024/01/31 07:55:10;;;;;;;16.17;10.10;;;;;;;;;;5064752;28;20490;-57
2024/01/31 07:57:37;;;;;;;13.75;9.75;;;;;;;;;;5060995;28;20045;-58
2024/01/31 08:00:06;;;;;;;13.32;10.57;;;;;;;;;;5063864;28;20508;-59
2024/01/31 08:02:32;;;;;;;14.83;10.00;;;;;;;;;;5064579;28;20052;-57
2024/01/31 08:04:59;;;;;;;14.48;9.70;;;;;;;;;;5061254;28;20467;-59
2024/01/31 08:07:28;;;;;;;14.85;10.80;;;;;;;;;;5067286;28;20048;-58
2024/01/31 08:09:54;;;;;;;17.55;11.00;;;;;;;;;;5064548;28;20075;-57
2024/01/31 08:12:21;;;;;;;13.52;9.32;;;;;;;;;;5065501;28;20072;-56
2024/01/31 08:14:48;;;;;;;11.75;9.00;;;;;;;;;;5056008;28;20656;-56
2024/01/31 08:17:15;;;;;;;14.23;10.07;;;;;;;;;;5059842;28;20378;-57
2024/01/31 08:19:42;;;;;;;14.40;9.40;;;;;;;;;;5066940;28;20102;-57
2024/01/31 08:22:09;;;;;;;14.15;10.57;;;;;;;;;;5069712;28;20059;-57
2024/01/31 08:24:37;;;;;;;14.48;9.65;;;;;;;;;;5065735;28;20049;-57
2024/01/31 08:27:04;;;;;;;13.15;10.30;;;;;;;;;;5065256;28;20063;-58
2024/01/31 08:29:30;;;;;;;16.02;10.43;;;;;;;;;;5067093;28;20527;-57
2024/01/31 08:31:57;;;;;;;15.65;10.45;;;;;;;;;;5055162;28;20076;-56
2024/01/31 08:34:24;;;;;;;15.05;10.23;;;;;;;;;;5060533;28;20049;-56
2024/01/31 08:36:51;;;;;;;14.60;11.23;;;;;;;;;;5062292;28;20076;-57
2024/01/31 08:39:18;;;;;;;17.65;10.27;;;;;;;;;;5063978;28;20053;-56
2024/01/31 08:41:46;;;;;;;13.18;9.38;;;;;;;;;;5056927;28;20063;-57
2024/01/31 08:44:13;;;;;;;12.35;8.90;;;;;;;;;;5063196;28;20048;-57
2024/01/31 08:46:39;;;;;;;12.75;9.45;;;;;;;;;;5066397;28;20044;-56
2024/01/31 08:49:06;;;;;;;12.48;9.20;;;;;;;;;;5054848;28;20048;-57
2024/01/31 08:51:35;;;;;;;12.77;9.57;;;;;;;;;;5073818;28;20489;-56
2024/01/31 08:54:02;;;;;;;10.20;7.75;;;;;;;;;;5058092;28;20057;-57
2024/01/31 08:56:28;;;;;;;11.35;8.38;;;;;;;;;;5057726;28;20053;-57
2024/01/31 08:58:57;;;;;;;10.13;7.85;;;;;;;;;;5054634;28;20049;-57
2024/01/31 09:01:23;;;;;;;8.73;6.95;;;;;;;;;;5066105;28;20056;-57
2024/01/31 09:03:50;;;;;;;8.02;5.90;;;;;;;;;;5054893;28;20045;-56
2024/01/31 09:06:17;;;;;;;7.75;5.35;;;;;;;;;;5054606;28;20053;-57
2024/01/31 09:08:44;;;;;;;8.25;5.35;;;;;;;;;;5065834;28;20049;-56
2024/01/31 09:11:11;;;;;;;6.10;4.68;;;;;;;;;;5065173;28;20056;-55
2024/01/31 09:13:37;;;;;;;6.10;4.93;;;;;;;;;;5073459;28;20049;-56
2024/01/31 09:16:06;;;;;;;5.65;4.25;;;;;;;;;;5060353;28;20055;-57
2024/01/31 09:18:33;;;;;;;4.72;3.47;;;;;;;;;;5054442;28;20418;-56
2024/01/31 09:20:59;;;;;;;5.25;3.05;;;;;;;;;;5053625;28;20049;-57
2024/01/31 09:23:27;;;;;;;4.65;2.90;;;;;;;;;;5053729;28;20060;-57
2024/01/31 09:25:53;;;;;;;3.47;2.88;;;;;;;;;;5061819;28;20048;-57
2024/01/31 09:28:21;;;;;;;5.18;3.10;;;;;;;;;;5073780;28;20056;-56
2024/01/31 09:30:47;;;;;;;5.45;3.08;;;;;;;;;;5073014;28;20067;-56
2024/01/31 09:33:15;;;;;;;3.40;2.53;;;;;;;;;;5058584;28;20079;-57
2024/01/31 09:35:42;;;;;;;4.05;2.78;;;;;;;;;;5060852;28;20056;-56
2024/01/31 09:38:09;;;;;;;4.93;3.17;;;;;;;;;;5058495;28;20052;-56
2024/01/31 09:40:36;;;;;;;3.72;2.45;;;;;;;;;;5071553;28;20063;-56
2024/01/31 09:43:03;;;;;;;4.63;3.25;;;;;;;;;;5072089;28;20056;-56
2024/01/31 09:45:30;;;;;;;4.63;3.13;;;;;;;;;;5064331;28;20487;-57
2024/01/31 09:47:57;;;;;;;5.20;3.67;;;;;;;;;;5060657;28;20059;-57
2024/01/31 09:50:25;;;;;;;6.50;3.72;;;;;;;;;;5064304;28;20060;-57
2024/01/31 09:52:53;;;;;;;5.40;3.45;;;;;;;;;;5070118;28;20055;-57
2024/01/31 09:55:20;;;;;;;5.85;3.58;;;;;;;;;;5053858;28;20057;-56
2024/01/31 09:57:47;;;;;;;5.80;3.92;;;;;;;;;;5068980;28;20063;-56
2024/01/31 10:00:14;;;;;;;6.93;4.43;;;;;;;;;;5072137;28;20075;-55
2024/01/31 10:02:42;;;;;;;5.95;4.10;;;;;;;;;;5060273;28;20478;-57
2024/01/31 10:05:09;;;;;;;6.95;4.60;;;;;;;;;;5053784;28;20053;-56
2024/01/31 10:07:38;;;;;;;7.22;4.93;;;;;;;;;;5063383;28;20048;-57
2024/01/31 10:10:06;;;;;;;7.70;4.80;;;;;;;;;;5058415;28;20053;-57
2024/01/31 10:12:32;;;;;;;5.88;4.38;;;;;;;;;;5052779;28;20064;-57
2024/01/31 10:14:59;;;;;;;6.63;4.43;;;;;;;;;;5053040;28;20057;-56
2024/01/31 10:17:26;;;;;;;7.55;4.90;;;;;;;;;;5053620;28;20053;-55
2024/01/31 10:19:53;;;;;;;7.10;4.88;;;;;;;;;;5058376;28;20045;-57
2024/01/31 10:22:20;;;;;;;9.88;5.90;;;;;;;;;;5059261;28;20049;-56
2024/01/31 10:24:49;;;;;;;9.90;5.47;;;;;;;;;;5059278;28;20048;-57
2024/01/31 10:27:19;;;;;;;8.52;5.47;;;;;;;;;;5070876;28;20454;-57
2024/01/31 10:29:46;;;;;;;8.43;5.10;;;;;;;;;;5069655;28;20049;-56
2024/01/31 10:32:15;;;;;;;8.38;5.10;;;;;;;;;;5052473;28;20052;-58
2024/01/31 10:34:42;;;;;;;8.52;5.85;;;;;;;;;;5053063;28;20052;-56
2024/01/31 10:37:09;;;;;;;11.63;8.00;;;;;;;;;;5063958;28;20447;-56
2024/01/31 10:39:36;;;;;;;9.57;6.88;;;;;;;;;;5062732;28;20053;-57
2024/01/31 10:42:05;;;;;;;9.55;7.25;;;;;;;;;;5072683;28;20052;-57
2024/01/31 10:44:32;;;;;;;11.70;8.48;;;;;;;;;;5072132;28;20405;-57
2024/01/31 10:46:59;;;;;;;12.05;8.88;;;;;;;;;;5063504;28;20060;-57
2024/01/31 10:49:26;;;;;;;13.55;9.40;;;;;;;;;;5052429;28;20478;-56
2024/01/31 10:51:55;;;;;;;13.43;9.75;;;;;;;;;;5053705;28;20049;-56
2024/01/31 10:54:25;;;;;;;13.07;9.55;;;;;;;;;;5057802;28;20056;-57
2024/01/31 10:56:52;;;;;;;16.45;10.02;;;;;;;;;;5063476;28;20053;-57
2024/01/31 10:59:20;;;;;;;15.93;10.00;;;;;;;;;;5052466;28;20096;-56
2024/01/31 11:01:55;;;;;;;14.82;10.52;;;;;;;;;;5052341;28;20056;-57
2024/01/31 11:04:22;;;;;;;15.13;11.38;;;;;;;;;;5053087;28;20060;-57
2024/01/31 11:06:49;;;;;;;15.18;11.20;;;;;;;;;;5056328;28;20479;-56
2024/01/31 11:09:21;;;;;;;14.10;10.43;;;;;;;;;;5064134;28;20052;-56
2024/01/31 11:11:48;;;;;;;16.05;11.93;;;;;;;;;;5072612;28;20057;-56
2024/01/31 11:14:15;;;;;;;16.08;11.50;;;;;;;;;;5062069;28;20059;-57
2024/01/31 11:16:43;;;;;;;16.05;12.43;;;;;;;;;;5067370;28;20057;-56
2024/01/31 11:19:17;;;;;;;14.95;11.70;;;;;;;;;;5053374;28;20076;-57
2024/01/31 11:21:45;;;;;;;15.35;11.68;;;;;;;;;;5052491;28;20064;-56
2024/01/31 11:24:13;;;;;;;16.00;11.98;;;;;;;;;;5057164;28;20048;-55
2024/01/31 11:26:40;;;;;;;18.17;11.48;;;;;;;;;;5055699;28;20057;-56
2024/01/31 11:29:08;;;;;;;15.40;11.82;;;;;;;;;;5055249;28;20408;-57
2024/01/31 11:31:35;;;;;;;16.25;11.07;;;;;;;;;;5054536;28;20056;-55
2024/01/31 11:34:04;;;;;;;18.23;12.50;;;;;;;;;;5049975;28;20057;-56
2024/01/31 11:36:30;;;;;;;17.65;12.20;;;;;;;;;;5052126;28;20052;-59
2024/01/31 11:38:57;;;;;;;17.80;12.77;;;;;;;;;;5054577;28;20049;-57
2024/01/31 11:41:24;;;;;;;17.70;12.57;;;;;;;;;;5055914;28;20037;-57
2024/01/31 11:43:51;;;;;;;17.25;12.32;;;;;;;;;;5049289;28;20414;-57
2024/01/31 11:46:18;;;;;;;17.38;12.70;;;;;;;;;;5059847;28;20056;-57
2024/01/31 11:48:45;;;;;;;18.15;12.80;;;;;;;;;;5053674;28;20049;-57
2024/01/31 11:51:13;;;;;;;18.17;12.68;;;;;;;;;;5053097;28;20402;-56
2024/01/31 11:53:40;;;;;;;17.33;13.18;;;;;;;;;;5055436;28;20049;-57
2024/01/31 11:56:07;;;;;;;17.08;12.30;;;;;;;;;;5066895;28;20406;-56
2024/01/31 11:58:36;;;;;;;17.45;12.57;;;;;;;;;;5060128;28;20064;-56
2024/01/31 12:01:03;;;;;;;19.02;13.23;;;;;;;;;;5075657;28;20075;-57
2024/01/31 12:03:30;;;;;;;14.93;11.18;;;;;;;;;;5064852;28;20048;-58
2024/01/31 12:05:57;;;;;;;15.48;11.20;;;;;;;;;;5067090;28;20048;-56
2024/01/31 12:08:27;;;;;;;16.55;11.55;;;;;;;;;;5071853;28;20048;-57
2024/01/31 12:10:54;;;;;;;16.80;11.48;;;;;;;;;;5062053;28;20052;-56
2024/01/31 12:13:21;;;;;;;14.27;10.07;;;;;;;;;;5055712;28;20053;-56
2024/01/31 12:15:48;;;;;;;14.85;10.90;;;;;;;;;;5064253;28;20052;-56
2024/01/31 12:18:15;;;;;;;17.10;11.50;;;;;;;;;;5063484;28;20063;-56
2024/01/31 12:20:42;;;;;;;14.05;11.18;;;;;;;;;;5069648;28;20044;-56
2024/01/31 12:23:09;;;;;;;14.82;10.70;;;;;;;;;;5059806;28;20045;-56
2024/01/31 12:25:37;;;;;;;17.40;11.57;;;;;;;;;;5065210;28;20052;-55
2024/01/31 12:28:04;;;;;;;14.70;10.60;;;;;;;;;;5058391;28;20056;-56
2024/01/31 12:30:31;;;;;;;13.48;10.27;;;;;;;;;;5060309;28;20045;-56
2024/01/31 12:32:59;;;;;;;15.80;10.82;;;;;;;;;;5061549;28;20064;-57
2024/01/31 12:35:26;;;;;;;14.65;10.88;;;;;;;;;;5067465;28;20064;-58
2024/01/31 12:37:52;;;;;;;15.40;10.57;;;;;;;;;;5059198;28;20055;-58
2024/01/31 12:40:19;;;;;;;15.43;11.00;;;;;;;;;;5055324;28;20415;-56
2024/01/31 12:42:47;;;;;;;17.65;12.00;;;;;;;;;;5056869;28;20059;-57
2024/01/31 12:45:14;;;;;;;17.08;11.18;;;;;;;;;;5072888;28;20052;-56
2024/01/31 12:47:41;;;;;;;17.90;11.32;;;;;;;;;;5055590;28;20405;-56
2024/01/31 12:50:08;;;;;;;16.13;12.32;;;;;;;;;;5057912;28;20048;-56
2024/01/31 12:52:35;;;;;;;19.40;13.68;;;;;;;;;;5054265;28;20049;-57
2024/01/31 12:55:01;;;;;;;18.95;13.15;;;;;;;;;;5057340;28;20060;-56
2024/01/31 12:57:28;;;;;;;18.77;14.20;;;;;;;;;;5063112;28;20052;-57
2024/01/31 12:59:56;;;;;;;19.05;14.48;;;;;;;;;;5073908;28;20056;-56
2024/01/31 13:02:23;;;;;;;19.73;14.60;;;;;;;;;;5066326;28;20049;-56
2024/01/31 13:04:50;;;;;;;20.77;14.48;;;;;;;;;;5056788;28;20080;-56
2024/01/31 13:07:17;;;;;;;22.08;15.75;;;;;;;;;;5065990;28;20056;-56
2024/01/31 13:09:44;;;;;;;22.45;16.02;;;;;;;;;;5057099;28;20383;-57
2024/01/31 13:12:11;;;;;;;19.60;14.35;;;;;;;;;;5054880;28;20056;-57
2024/01/31 13:14:38;;;;;;;20.08;14.75;;;;;;;;;;5054861;28;20052;-56
2024/01/31 13:17:07;;;;;;;20.45;13.75;;;;;;;;;;5060873;28;20059;-56
2024/01/31 13:19:35;;;;;;;18.60;13.40;;;;;;;;;;5063367;28;20048;-56
2024/01/31 13:22:02;;;;;;;18.40;13.20;;;;;;;;;;5072362;28;20059;-56
2024/01/31 13:24:29;;;;;;;18.60;13.27;;;;;;;;;;5068394;28;20052;-57
2024/01/31 13:26:55;;;;;;;17.33;13.05;;;;;;;;;;5072265;28;20056;-56
2024/01/31 13:29:24;;;;;;;15.75;12.38;;;;;;;;;;5058123;28;20517;-56
2024/01/31 13:31:51;;;;;;;18.55;12.52;;;;;;;;;;5068599;28;20044;-56
2024/01/31 13:34:19;;;;;;;15.02;12.07;;;;;;;;;;5059432;28;20053;-56
2024/01/31 13:36:46;;;;;;;15.52;11.90;;;;;;;;;;5055289;28;20049;-56
2024/01/31 13:39:14;;;;;;;15.80;12.30;;;;;;;;;;5073890;28;20067;-58
2024/01/31 13:41:42;;;;;;;15.23;11.32;;;;;;;;;;5054391;28;20399;-56
2024/01/31 13:44:09;;;;;;;15.85;11.48;;;;;;;;;;5055017;28;20057;-57
2024/01/31 13:46:38;;;;;;;14.63;11.13;;;;;;;;;;5061574;28;20397;-56
2024/01/31 13:49:06;;;;;;;14.93;11.05;;;;;;;;;;5057412;28;20056;-56
2024/01/31 13:51:34;;;;;;;15.30;10.20;;;;;;;;;;5064498;28;20401;-56
2024/01/31 13:54:01;;;;;;;13.35;10.02;;;;;;;;;;5073152;28;20079;-57
2024/01/31 13:56:27;;;;;;;13.98;10.40;;;;;;;;;;5069963;28;20049;-57
2024/01/31 13:58:54;;;;;;;13.73;9.30;;;;;;;;;;5062790;28;20068;-56
2024/01/31 14:01:21;;;;;;;14.55;10.35;;;;;;;;;;5057642;28;20402;-55
2024/01/31 14:03:48;;;;;;;14.05;9.65;;;;;;;;;;5063521;28;20059;-56
2024/01/31 14:06:14;;;;;;;10.55;7.85;;;;;;;;;;5054983;28;20056;-55
2024/01/31 14:08:43;;;;;;;9.75;7.30;;;;;;;;;;5062480;28;20386;-56
2024/01/31 14:11:10;;;;;;;9.30;7.03;;;;;;;;;;5059794;28;20477;-56
2024/01/31 14:13:37;;;;;;;7.68;6.40;;;;;;;;;;5055099;28;20056;-57
2024/01/31 14:16:06;;;;;;;7.63;6.05;;;;;;;;;;5059516;28;20049;-55
2024/01/31 14:18:33;;;;;;;7.57;6.30;;;;;;;;;;5058935;28;20045;-56
2024/01/31 14:21:00;;;;;;;6.88;6.13;;;;;;;;;;5063856;28;20044;-56
2024/01/31 14:23:26;;;;;;;7.32;6.20;;;;;;;;;;5061842;28;20048;-58
2024/01/31 14:25:55;;;;;;;6.78;5.57;;;;;;;;;;5058244;28;20053;-54
2024/01/31 14:28:22;;;;;;;7.97;5.53;;;;;;;;;;5067836;28;20405;-56
2024/01/31 14:30:49;;;;;;;6.25;5.57;;;;;;;;;;5071530;28;20052;-55
2024/01/31 14:33:15;;;;;;;7.53;6.07;;;;;;;;;;5066406;28;20072;-57